sensor_id;sensor_type;location;lat;lon;timestamp;P1;durP1;ratioP1;P2;durP2;ratioP2
7169;SDS011;3626;42.656;23.312;2022-12-08T00:00:01;90.78;;;39.00;;
7169;SDS011;3626;42.656;23.312;2022-12-08T00:00:08;92.28;;;39.30;;
7169;SDS011;3626;42.656;23.312;2022-12-08T00:00:14;94.10;;;39.97;;
7169;SDS011;3626;42.656;23.312;2022-12-08T00:00:21;90.44;;;40.00;;
7169;SDS011;3626;42.656;23.312;2022-12-08T00:00:27;88.65;;;39.75;;
7169;SDS011;3626;42.656;23.312;2022-12-08T00:00:33;88.25;;;39.55;;
7169;SDS011;3626;42.656;23.312;2022-12-08T00:00:39;85.83;;;39.00;;
7169;SDS011;3626;42.656;23.312;2022-12-08T00:00:45;86.15;;;38.92;;
7169;SDS011;3626;42.656;23.312;2022-12-08T00:00:51;84.65;;;38.70;;
7169;SDS011;3626;42.656;23.312;2022-12-08T00:01:02;84.93;;;38.35;;
7169;SDS011;3626;42.656;23.312;2022-12-08T00:01:09;84.97;;;38.38;;
7169;SDS011;3626;42.656;23.312;2022-12-08T00:01:17;84.92;;;37.96;;
7169;SDS011;3626;42.656;23.312;2022-12-08T00:01:25;84.20;;;38.00;;
7169;SDS011;3626;42.656;23.312;2022-12-08T00:01:32;83.80;;;37.93;;
7169;SDS011;3626;42.656;23.312;2022-12-08T00:01:39;85.46;;;38.22;;
7169;SDS011;3626;42.656;23.312;2022-12-08T00:01:44;84.57;;;38.10;;
7169;SDS011;3626;42.656;23.312;2022-12-08T00:01:51;82.07;;;37.60;;
7169;SDS011;3626;42.656;23.312;2022-12-08T00:01:57;82.05;;;37.75;;
7169;SDS011;3626;42.656;23.312;2022-12-08T00:02:02;80.65;;;37.08;;
7169;SDS011;3626;42.656;23.312;2022-12-08T00:02:08;79.00;;;37.00;;
7169;SDS011;3626;42.656;23.312;2022-12-08T00:02:14;77.47;;;36.60;;
7169;SDS011;3626;42.656;23.312;2022-12-08T00:02:19;78.57;;;36.65;;
7169;SDS011;3626;42.656;23.312;2022-12-08T00:02:25;79.30;;;36.60;;
7169;SDS011;3626;42.656;23.312;2022-12-08T00:02:31;78.88;;;36.53;;
7169;SDS011;3626;42.656;23.312;2022-12-08T00:02:37;77.90;;;36.15;;
7169;SDS011;3626;42.656;23.312;2022-12-08T00:02:42;78.47;;;36.03;;
7169;SDS011;3626;42.656;23.312;2022-12-08T00:02:48;80.20;;;36.20;;
7169;SDS011;3626;42.656;23.312;2022-12-08T00:02:54;79.97;;;36.50;;
7169;SDS011;3626;42.656;23.312;2022-12-08T00:03:00;81.63;;;36.80;;
7169;SDS011;3626;42.656;23.312;2022-12-08T00:03:05;81.35;;;36.45;;
7169;SDS011;3626;42.656;23.312;2022-12-08T00:03:11;80.83;;;36.53;;
7169;SDS011;3626;42.656;23.312;2022-12-08T00:03:17;80.37;;;36.73;;
7169;SDS011;3626;42.656;23.312;2022-12-08T00:03:24;79.58;;;36.90;;
7169;SDS011;3626;42.656;23.312;2022-12-08T00:03:29;79.88;;;36.65;;
7169;SDS011;3626;42.656;23.312;2022-12-08T00:03:35;80.13;;;36.73;;
7169;SDS011;3626;42.656;23.312;2022-12-08T00:03:41;79.20;;;36.90;;
7169;SDS011;3626;42.656;23.312;2022-12-08T00:03:47;79.55;;;36.95;;
7169;SDS011;3626;42.656;23.312;2022-12-08T00:03:53;80.65;;;36.75;;
7169;SDS011;3626;42.656;23.312;2022-12-08T00:04:00;80.22;;;36.70;;
7169;SDS011;3626;42.656;23.312;2022-12-08T00:04:07;80.37;;;36.77;;
7169;SDS011;3626;42.656;23.312;2022-12-08T00:04:14;80.43;;;36.63;;
7169;SDS011;3626;42.656;23.312;2022-12-08T00:04:19;79.32;;;36.13;;
7169;SDS011;3626;42.656;23.312;2022-12-08T00:04:26;77.66;;;35.78;;
7169;SDS011;3626;42.656;23.312;2022-12-08T00:04:32;77.13;;;35.67;;
7169;SDS011;3626;42.656;23.312;2022-12-08T00:04:57;76.14;;;35.95;;
7169;SDS011;3626;42.656;23.312;2022-12-08T00:05:21;78.95;;;36.85;;
7169;SDS011;3626;42.656;23.312;2022-12-08T00:05:45;81.03;;;37.04;;
7169;SDS011;3626;42.656;23.312;2022-12-08T00:06:14;78.60;;;36.94;;
7169;SDS011;3626;42.656;23.312;2022-12-08T00:06:46;78.60;;;36.72;;
7169;SDS011;3626;42.656;23.312;2022-12-08T00:07:10;84.76;;;37.39;;
7169;SDS011;3626;42.656;23.312;2022-12-08T00:07:37;85.25;;;38.10;;
7169;SDS011;3626;42.656;23.312;2022-12-08T00:08:03;84.32;;;38.50;;
7169;SDS011;3626;42.656;23.312;2022-12-08T00:08:27;84.57;;;37.46;;
7169;SDS011;3626;42.656;23.312;2022-12-08T00:08:51;84.46;;;36.46;;
7169;SDS011;3626;42.656;23.312;2022-12-08T00:09:17;84.41;;;36.75;;
7169;SDS011;3626;42.656;23.312;2022-12-08T00:09:28;81.45;;;36.61;;
7169;SDS011;3626;42.656;23.312;2022-12-08T00:09:36;82.17;;;36.73;;
7169;SDS011;3626;42.656;23.312;2022-12-08T00:09:43;82.20;;;36.90;;
7169;SDS011;3626;42.656;23.312;2022-12-08T00:09:49;80.60;;;36.60;;
7169;SDS011;3626;42.656;23.312;2022-12-08T00:09:55;82.97;;;37.08;;
7169;SDS011;3626;42.656;23.312;2022-12-08T00:10:00;85.88;;;36.90;;
7169;SDS011;3626;42.656;23.312;2022-12-08T00:10:07;86.22;;;37.03;;
7169;SDS011;3626;42.656;23.312;2022-12-08T00:10:13;84.85;;;36.92;;
7169;SDS011;3626;42.656;23.312;2022-12-08T00:10:19;84.85;;;36.50;;
7169;SDS011;3626;42.656;23.312;2022-12-08T00:10:24;84.50;;;36.55;;
7169;SDS011;3626;42.656;23.312;2022-12-08T00:10:31;83.80;;;36.70;;
7169;SDS011;3626;42.656;23.312;2022-12-08T00:10:37;82.90;;;36.60;;
7169;SDS011;3626;42.656;23.312;2022-12-08T00:10:43;84.07;;;36.60;;
7169;SDS011;3626;42.656;23.312;2022-12-08T00:10:49;84.43;;;36.77;;
7169;SDS011;3626;42.656;23.312;2022-12-08T00:10:54;82.40;;;36.28;;
7169;SDS011;3626;42.656;23.312;2022-12-08T00:11:00;78.85;;;35.85;;
7169;SDS011;3626;42.656;23.312;2022-12-08T00:11:10;78.93;;;35.37;;
7169;SDS011;3626;42.656;23.312;2022-12-08T00:11:16;79.16;;;35.59;;
7169;SDS011;3626;42.656;23.312;2022-12-08T00:11:22;79.00;;;35.47;;
7169;SDS011;3626;42.656;23.312;2022-12-08T00:11:28;77.75;;;34.72;;
7169;SDS011;3626;42.656;23.312;2022-12-08T00:11:34;79.20;;;34.80;;
7169;SDS011;3626;42.656;23.312;2022-12-08T00:11:40;78.13;;;34.97;;
7169;SDS011;3626;42.656;23.312;2022-12-08T00:11:46;75.65;;;34.60;;
7169;SDS011;3626;42.656;23.312;2022-12-08T00:11:55;74.97;;;34.40;;
7169;SDS011;3626;42.656;23.312;2022-12-08T00:12:04;77.85;;;34.88;;
7169;SDS011;3626;42.656;23.312;2022-12-08T00:12:12;78.93;;;35.15;;
7169;SDS011;3626;42.656;23.312;2022-12-08T00:12:19;79.17;;;35.30;;
7169;SDS011;3626;42.656;23.312;2022-12-08T00:12:25;79.73;;;35.50;;
7169;SDS011;3626;42.656;23.312;2022-12-08T00:12:30;79.65;;;35.85;;
7169;SDS011;3626;42.656;23.312;2022-12-08T00:12:36;80.32;;;35.97;;
7169;SDS011;3626;42.656;23.312;2022-12-08T00:12:42;79.93;;;35.40;;
7169;SDS011;3626;42.656;23.312;2022-12-08T00:12:47;78.43;;;35.00;;
7169;SDS011;3626;42.656;23.312;2022-12-08T00:12:53;78.25;;;35.38;;
7169;SDS011;3626;42.656;23.312;2022-12-08T00:12:59;75.00;;;35.15;;
7169;SDS011;3626;42.656;23.312;2022-12-08T00:13:04;74.33;;;35.20;;
7169;SDS011;3626;42.656;23.312;2022-12-08T00:13:10;75.03;;;35.65;;
7169;SDS011;3626;42.656;23.312;2022-12-08T00:13:16;73.65;;;35.72;;
7169;SDS011;3626;42.656;23.312;2022-12-08T00:13:21;73.73;;;36.20;;
7169;SDS011;3626;42.656;23.312;2022-12-08T00:13:27;74.20;;;36.47;;
7169;SDS011;3626;42.656;23.312;2022-12-08T00:13:34;73.50;;;36.10;;
7169;SDS011;3626;42.656;23.312;2022-12-08T00:13:40;74.70;;;36.55;;
7169;SDS011;3626;42.656;23.312;2022-12-08T00:13:46;76.90;;;36.97;;
7169;SDS011;3626;42.656;23.312;2022-12-08T00:13:51;78.33;;;36.77;;
7169;SDS011;3626;42.656;23.312;2022-12-08T00:13:57;79.38;;;36.60;;
7169;SDS011;3626;42.656;23.312;2022-12-08T00:14:03;79.32;;;36.50;;
7169;SDS011;3626;42.656;23.312;2022-12-08T00:14:09;78.15;;;36.15;;
7169;SDS011;3626;42.656;23.312;2022-12-08T00:14:14;78.57;;;36.23;;
7169;SDS011;3626;42.656;23.312;2022-12-08T00:14:21;79.63;;;36.20;;
7169;SDS011;3626;42.656;23.312;2022-12-08T00:14:30;81.41;;;36.33;;
7169;SDS011;3626;42.656;23.312;2022-12-08T00:14:38;83.27;;;36.73;;
7169;SDS011;3626;42.656;23.312;2022-12-08T00:14:46;82.68;;;37.33;;
7169;SDS011;3626;42.656;23.312;2022-12-08T00:14:53;82.77;;;37.77;;
7169;SDS011;3626;42.656;23.312;2022-12-08T00:14:59;84.70;;;38.27;;
7169;SDS011;3626;42.656;23.312;2022-12-08T00:15:05;84.25;;;37.88;;
7169;SDS011;3626;42.656;23.312;2022-12-08T00:15:11;85.57;;;37.85;;
7169;SDS011;3626;42.656;23.312;2022-12-08T00:15:17;87.00;;;37.93;;
7169;SDS011;3626;42.656;23.312;2022-12-08T00:15:23;85.78;;;37.67;;
7169;SDS011;3626;42.656;23.312;2022-12-08T00:15:28;83.18;;;37.40;;
7169;SDS011;3626;42.656;23.312;2022-12-08T00:15:34;83.07;;;37.27;;
7169;SDS011;3626;42.656;23.312;2022-12-08T00:15:40;78.90;;;36.30;;
7169;SDS011;3626;42.656;23.312;2022-12-08T00:15:45;79.20;;;36.08;;
7169;SDS011;3626;42.656;23.312;2022-12-08T00:15:51;78.80;;;35.83;;
7169;SDS011;3626;42.656;23.312;2022-12-08T00:15:58;76.38;;;35.72;;
7169;SDS011;3626;42.656;23.312;2022-12-08T00:16:04;79.12;;;35.57;;
7169;SDS011;3626;42.656;23.312;2022-12-08T00:16:10;79.13;;;35.63;;
7169;SDS011;3626;42.656;23.312;2022-12-08T00:16:16;78.38;;;35.45;;
7169;SDS011;3626;42.656;23.312;2022-12-08T00:16:22;77.80;;;35.57;;
7169;SDS011;3626;42.656;23.312;2022-12-08T00:16:28;78.75;;;35.60;;
7169;SDS011;3626;42.656;23.312;2022-12-08T00:16:33;80.10;;;35.50;;
7169;SDS011;3626;42.656;23.312;2022-12-08T00:16:40;83.87;;;36.37;;
7169;SDS011;3626;42.656;23.312;2022-12-08T00:16:46;84.57;;;36.33;;
7169;SDS011;3626;42.656;23.312;2022-12-08T00:16:52;87.20;;;36.67;;
7169;SDS011;3626;42.656;23.312;2022-12-08T00:16:58;88.53;;;36.70;;
7169;SDS011;3626;42.656;23.312;2022-12-08T00:17:05;87.66;;;37.14;;
7169;SDS011;3626;42.656;23.312;2022-12-08T00:17:12;86.87;;;37.43;;
7169;SDS011;3626;42.656;23.312;2022-12-08T00:17:19;86.27;;;37.70;;
7169;SDS011;3626;42.656;23.312;2022-12-08T00:17:25;88.17;;;38.10;;
7169;SDS011;3626;42.656;23.312;2022-12-08T00:17:30;87.90;;;38.35;;
7169;SDS011;3626;42.656;23.312;2022-12-08T00:17:36;87.85;;;38.50;;
7169;SDS011;3626;42.656;23.312;2022-12-08T00:17:42;86.80;;;38.27;;
7169;SDS011;3626;42.656;23.312;2022-12-08T00:17:48;85.88;;;38.28;;
7169;SDS011;3626;42.656;23.312;2022-12-08T00:17:53;86.10;;;38.65;;
7169;SDS011;3626;42.656;23.312;2022-12-08T00:17:59;86.93;;;38.83;;
7169;SDS011;3626;42.656;23.312;2022-12-08T00:18:06;86.88;;;38.90;;
7169;SDS011;3626;42.656;23.312;2022-12-08T00:18:11;87.47;;;38.85;;
7169;SDS011;3626;42.656;23.312;2022-12-08T00:18:17;89.00;;;38.83;;
7169;SDS011;3626;42.656;23.312;2022-12-08T00:18:23;90.10;;;38.55;;
7169;SDS011;3626;42.656;23.312;2022-12-08T00:18:29;90.80;;;38.50;;
7169;SDS011;3626;42.656;23.312;2022-12-08T00:18:35;91.83;;;38.57;;
7169;SDS011;3626;42.656;23.312;2022-12-08T00:18:40;89.90;;;38.22;;
7169;SDS011;3626;42.656;23.312;2022-12-08T00:18:46;90.20;;;38.35;;
7169;SDS011;3626;42.656;23.312;2022-12-08T00:18:52;88.25;;;37.83;;
7169;SDS011;3626;42.656;23.312;2022-12-08T00:18:58;87.00;;;37.43;;
7169;SDS011;3626;42.656;23.312;2022-12-08T00:19:03;85.60;;;37.38;;
7169;SDS011;3626;42.656;23.312;2022-12-08T00:19:09;83.85;;;36.85;;
7169;SDS011;3626;42.656;23.312;2022-12-08T00:19:15;82.50;;;36.40;;
7169;SDS011;3626;42.656;23.312;2022-12-08T00:19:21;82.07;;;36.20;;
7169;SDS011;3626;42.656;23.312;2022-12-08T00:19:28;82.10;;;36.25;;
7169;SDS011;3626;42.656;23.312;2022-12-08T00:19:35;78.80;;;35.67;;
7169;SDS011;3626;42.656;23.312;2022-12-08T00:19:41;79.95;;;35.88;;
7169;SDS011;3626;42.656;23.312;2022-12-08T00:19:47;80.60;;;36.07;;
7169;SDS011;3626;42.656;23.312;2022-12-08T00:19:54;81.00;;;36.00;;
7169;SDS011;3626;42.656;23.312;2022-12-08T00:20:00;82.60;;;36.00;;
7169;SDS011;3626;42.656;23.312;2022-12-08T00:20:06;83.33;;;36.07;;
7169;SDS011;3626;42.656;23.312;2022-12-08T00:20:12;85.04;;;36.46;;
7169;SDS011;3626;42.656;23.312;2022-12-08T00:20:18;85.85;;;37.10;;
7169;SDS011;3626;42.656;23.312;2022-12-08T00:20:24;84.00;;;37.08;;
7169;SDS011;3626;42.656;23.312;2022-12-08T00:20:29;81.40;;;36.93;;
7169;SDS011;3626;42.656;23.312;2022-12-08T00:20:35;82.95;;;37.42;;
7169;SDS011;3626;42.656;23.312;2022-12-08T00:20:41;82.95;;;37.38;;
7169;SDS011;3626;42.656;23.312;2022-12-08T00:20:53;82.60;;;37.13;;
7169;SDS011;3626;42.656;23.312;2022-12-08T00:20:59;81.84;;;37.11;;
7169;SDS011;3626;42.656;23.312;2022-12-08T00:21:05;80.45;;;37.08;;
7169;SDS011;3626;42.656;23.312;2022-12-08T00:21:11;80.03;;;37.50;;
7169;SDS011;3626;42.656;23.312;2022-12-08T00:21:18;78.96;;;37.26;;
7169;SDS011;3626;42.656;23.312;2022-12-08T00:21:23;79.13;;;37.13;;
7169;SDS011;3626;42.656;23.312;2022-12-08T00:21:29;81.72;;;37.58;;
7169;SDS011;3626;42.656;23.312;2022-12-08T00:21:35;81.68;;;37.72;;
7169;SDS011;3626;42.656;23.312;2022-12-08T00:21:40;81.97;;;37.55;;
7169;SDS011;3626;42.656;23.312;2022-12-08T00:21:46;83.63;;;37.77;;
7169;SDS011;3626;42.656;23.312;2022-12-08T00:21:52;82.07;;;37.60;;
7169;SDS011;3626;42.656;23.312;2022-12-08T00:21:58;83.53;;;37.90;;
7169;SDS011;3626;42.656;23.312;2022-12-08T00:22:04;82.80;;;38.13;;
7169;SDS011;3626;42.656;23.312;2022-12-08T00:22:11;84.57;;;37.93;;
7169;SDS011;3626;42.656;23.312;2022-12-08T00:22:17;84.90;;;37.93;;
7169;SDS011;3626;42.656;23.312;2022-12-08T00:22:22;85.68;;;38.00;;
7169;SDS011;3626;42.656;23.312;2022-12-08T00:22:28;85.67;;;37.60;;
7169;SDS011;3626;42.656;23.312;2022-12-08T00:22:36;85.07;;;37.70;;
7169;SDS011;3626;42.656;23.312;2022-12-08T00:22:43;85.28;;;38.20;;
7169;SDS011;3626;42.656;23.312;2022-12-08T00:22:48;85.45;;;38.33;;
7169;SDS011;3626;42.656;23.312;2022-12-08T00:22:54;86.30;;;38.37;;
7169;SDS011;3626;42.656;23.312;2022-12-08T00:23:00;86.43;;;38.15;;
7169;SDS011;3626;42.656;23.312;2022-12-08T00:23:07;86.00;;;37.65;;
7169;SDS011;3626;42.656;23.312;2022-12-08T00:23:12;83.63;;;37.50;;
7169;SDS011;3626;42.656;23.312;2022-12-08T00:23:18;83.53;;;37.30;;
7169;SDS011;3626;42.656;23.312;2022-12-08T00:23:24;82.97;;;37.20;;
7169;SDS011;3626;42.656;23.312;2022-12-08T00:23:30;80.77;;;37.10;;
7169;SDS011;3626;42.656;23.312;2022-12-08T00:23:36;79.10;;;36.38;;
7169;SDS011;3626;42.656;23.312;2022-12-08T00:23:41;79.38;;;36.35;;
7169;SDS011;3626;42.656;23.312;2022-12-08T00:23:47;79.80;;;36.30;;
7169;SDS011;3626;42.656;23.312;2022-12-08T00:23:53;77.73;;;36.27;;
7169;SDS011;3626;42.656;23.312;2022-12-08T00:23:59;77.27;;;36.30;;
7169;SDS011;3626;42.656;23.312;2022-12-08T00:24:05;77.60;;;36.25;;
7169;SDS011;3626;42.656;23.312;2022-12-08T00:24:12;76.94;;;36.22;;
7169;SDS011;3626;42.656;23.312;2022-12-08T00:24:18;76.75;;;36.20;;
7169;SDS011;3626;42.656;23.312;2022-12-08T00:24:24;75.70;;;36.42;;
7169;SDS011;3626;42.656;23.312;2022-12-08T00:24:35;77.29;;;36.65;;
7169;SDS011;3626;42.656;23.312;2022-12-08T00:24:43;76.50;;;36.50;;
7169;SDS011;3626;42.656;23.312;2022-12-08T00:24:50;77.62;;;37.10;;
7169;SDS011;3626;42.656;23.312;2022-12-08T00:24:56;79.87;;;37.00;;
7169;SDS011;3626;42.656;23.312;2022-12-08T00:25:02;79.00;;;36.90;;
7169;SDS011;3626;42.656;23.312;2022-12-08T00:25:08;83.67;;;37.40;;
7169;SDS011;3626;42.656;23.312;2022-12-08T00:25:14;85.60;;;37.30;;
7169;SDS011;3626;42.656;23.312;2022-12-08T00:25:19;87.35;;;37.10;;
7169;SDS011;3626;42.656;23.312;2022-12-08T00:25:26;87.72;;;36.88;;
7169;SDS011;3626;42.656;23.312;2022-12-08T00:25:33;87.90;;;36.85;;
7169;SDS011;3626;42.656;23.312;2022-12-08T00:25:39;87.40;;;36.64;;
7169;SDS011;3626;42.656;23.312;2022-12-08T00:25:45;86.45;;;36.22;;
7169;SDS011;3626;42.656;23.312;2022-12-08T00:25:51;85.60;;;35.97;;
7169;SDS011;3626;42.656;23.312;2022-12-08T00:26:00;85.25;;;35.95;;
7169;SDS011;3626;42.656;23.312;2022-12-08T00:26:06;86.07;;;36.10;;
7169;SDS011;3626;42.656;23.312;2022-12-08T00:26:12;83.28;;;36.17;;
7169;SDS011;3626;42.656;23.312;2022-12-08T00:26:18;81.40;;;36.33;;
7169;SDS011;3626;42.656;23.312;2022-12-08T00:26:24;80.57;;;36.20;;
7169;SDS011;3626;42.656;23.312;2022-12-08T00:26:29;80.03;;;36.20;;
7169;SDS011;3626;42.656;23.312;2022-12-08T00:26:35;80.38;;;36.15;;
7169;SDS011;3626;42.656;23.312;2022-12-08T00:26:42;82.00;;;36.27;;
7169;SDS011;3626;42.656;23.312;2022-12-08T00:26:48;81.95;;;36.40;;
7169;SDS011;3626;42.656;23.312;2022-12-08T00:26:54;81.75;;;36.60;;
7169;SDS011;3626;42.656;23.312;2022-12-08T00:26:59;81.03;;;36.73;;
7169;SDS011;3626;42.656;23.312;2022-12-08T00:27:06;80.74;;;36.58;;
7169;SDS011;3626;42.656;23.312;2022-12-08T00:27:13;80.04;;;36.68;;
7169;SDS011;3626;42.656;23.312;2022-12-08T00:27:20;79.80;;;36.43;;
7169;SDS011;3626;42.656;23.312;2022-12-08T00:27:25;79.70;;;36.50;;
7169;SDS011;3626;42.656;23.312;2022-12-08T00:27:31;80.90;;;36.53;;
7169;SDS011;3626;42.656;23.312;2022-12-08T00:27:37;79.80;;;36.60;;
7169;SDS011;3626;42.656;23.312;2022-12-08T00:27:42;77.72;;;36.22;;
7169;SDS011;3626;42.656;23.312;2022-12-08T00:27:48;76.63;;;35.93;;
7169;SDS011;3626;42.656;23.312;2022-12-08T00:27:54;77.18;;;36.00;;
7169;SDS011;3626;42.656;23.312;2022-12-08T00:27:59;77.15;;;35.90;;
7169;SDS011;3626;42.656;23.312;2022-12-08T00:28:05;77.13;;;36.13;;
7169;SDS011;3626;42.656;23.312;2022-12-08T00:28:11;76.07;;;35.67;;
7169;SDS011;3626;42.656;23.312;2022-12-08T00:28:18;76.23;;;35.53;;
7169;SDS011;3626;42.656;23.312;2022-12-08T00:28:23;77.73;;;35.47;;
7169;SDS011;3626;42.656;23.312;2022-12-08T00:28:29;78.03;;;35.50;;
7169;SDS011;3626;42.656;23.312;2022-12-08T00:28:35;77.40;;;35.47;;
7169;SDS011;3626;42.656;23.312;2022-12-08T00:28:41;77.97;;;35.80;;
7169;SDS011;3626;42.656;23.312;2022-12-08T00:28:47;80.60;;;36.07;;
7169;SDS011;3626;42.656;23.312;2022-12-08T00:28:53;80.55;;;36.22;;
7169;SDS011;3626;42.656;23.312;2022-12-08T00:28:58;79.47;;;36.22;;
7169;SDS011;3626;42.656;23.312;2022-12-08T00:29:04;78.60;;;36.10;;
7169;SDS011;3626;42.656;23.312;2022-12-08T00:29:10;77.90;;;36.00;;
7169;SDS011;3626;42.656;23.312;2022-12-08T00:29:17;82.28;;;36.22;;
7169;SDS011;3626;42.656;23.312;2022-12-08T00:29:22;80.35;;;36.30;;
7169;SDS011;3626;42.656;23.312;2022-12-08T00:29:28;79.50;;;36.20;;
7169;SDS011;3626;42.656;23.312;2022-12-08T00:29:34;79.45;;;36.20;;
7169;SDS011;3626;42.656;23.312;2022-12-08T00:29:41;77.87;;;35.80;;
7169;SDS011;3626;42.656;23.312;2022-12-08T00:29:47;77.68;;;35.64;;
7169;SDS011;3626;42.656;23.312;2022-12-08T00:29:53;78.67;;;35.40;;
7169;SDS011;3626;42.656;23.312;2022-12-08T00:29:59;78.20;;;35.33;;
7169;SDS011;3626;42.656;23.312;2022-12-08T00:30:05;78.57;;;35.60;;
7169;SDS011;3626;42.656;23.312;2022-12-08T00:30:11;79.07;;;35.63;;
7169;SDS011;3626;42.656;23.312;2022-12-08T00:30:17;76.43;;;35.88;;
7169;SDS011;3626;42.656;23.312;2022-12-08T00:30:23;76.50;;;35.90;;
7169;SDS011;3626;42.656;23.312;2022-12-08T00:30:29;76.75;;;36.30;;
7169;SDS011;3626;42.656;23.312;2022-12-08T00:30:34;76.63;;;36.17;;
7169;SDS011;3626;42.656;23.312;2022-12-08T00:30:43;78.33;;;36.41;;
7169;SDS011;3626;42.656;23.312;2022-12-08T00:30:50;77.17;;;36.33;;
7169;SDS011;3626;42.656;23.312;2022-12-08T00:30:56;75.63;;;36.17;;
7169;SDS011;3626;42.656;23.312;2022-12-08T00:31:06;75.28;;;35.90;;
7169;SDS011;3626;42.656;23.312;2022-12-08T00:31:12;76.70;;;35.94;;
7169;SDS011;3626;42.656;23.312;2022-12-08T00:31:18;76.22;;;35.72;;
7169;SDS011;3626;42.656;23.312;2022-12-08T00:31:24;77.33;;;35.97;;
7169;SDS011;3626;42.656;23.312;2022-12-08T00:31:29;77.55;;;36.08;;
7169;SDS011;3626;42.656;23.312;2022-12-08T00:31:35;77.07;;;36.17;;
7169;SDS011;3626;42.656;23.312;2022-12-08T00:31:41;75.15;;;35.97;;
7169;SDS011;3626;42.656;23.312;2022-12-08T00:31:48;74.20;;;35.85;;
7169;SDS011;3626;42.656;23.312;2022-12-08T00:31:54;74.27;;;35.97;;
7169;SDS011;3626;42.656;23.312;2022-12-08T00:32:00;75.87;;;35.67;;
7169;SDS011;3626;42.656;23.312;2022-12-08T00:32:05;73.82;;;35.30;;
7169;SDS011;3626;42.656;23.312;2022-12-08T00:32:11;71.60;;;34.63;;
7169;SDS011;3626;42.656;23.312;2022-12-08T00:32:17;71.35;;;34.45;;
7169;SDS011;3626;42.656;23.312;2022-12-08T00:32:23;70.70;;;34.03;;
7169;SDS011;3626;42.656;23.312;2022-12-08T00:32:28;70.10;;;33.38;;
7169;SDS011;3626;42.656;23.312;2022-12-08T00:32:35;69.53;;;33.35;;
7169;SDS011;3626;42.656;23.312;2022-12-08T00:32:41;70.10;;;33.40;;
7169;SDS011;3626;42.656;23.312;2022-12-08T00:32:47;71.38;;;33.58;;
7169;SDS011;3626;42.656;23.312;2022-12-08T00:32:53;73.60;;;33.90;;
7169;SDS011;3626;42.656;23.312;2022-12-08T00:32:58;73.80;;;34.17;;
7169;SDS011;3626;42.656;23.312;2022-12-08T00:33:04;73.93;;;34.50;;
7169;SDS011;3626;42.656;23.312;2022-12-08T00:33:11;76.06;;;34.68;;
7169;SDS011;3626;42.656;23.312;2022-12-08T00:33:16;78.47;;;35.10;;
7169;SDS011;3626;42.656;23.312;2022-12-08T00:33:22;78.15;;;35.22;;
7169;SDS011;3626;42.656;23.312;2022-12-08T00:33:28;78.20;;;35.00;;
7169;SDS011;3626;42.656;23.312;2022-12-08T00:33:34;80.05;;;35.03;;
7169;SDS011;3626;42.656;23.312;2022-12-08T00:33:40;82.25;;;35.13;;
7169;SDS011;3626;42.656;23.312;2022-12-08T00:33:45;82.70;;;35.17;;
7169;SDS011;3626;42.656;23.312;2022-12-08T00:33:51;82.25;;;35.10;;
7169;SDS011;3626;42.656;23.312;2022-12-08T00:33:57;81.75;;;34.97;;
7169;SDS011;3626;42.656;23.312;2022-12-08T00:34:03;81.03;;;34.43;;
7169;SDS011;3626;42.656;23.312;2022-12-08T00:34:10;79.90;;;34.83;;
7169;SDS011;3626;42.656;23.312;2022-12-08T00:34:16;77.06;;;34.44;;
7169;SDS011;3626;42.656;23.312;2022-12-08T00:34:23;75.50;;;34.33;;
7169;SDS011;3626;42.656;23.312;2022-12-08T00:34:29;75.83;;;34.40;;
7169;SDS011;3626;42.656;23.312;2022-12-08T00:34:35;75.67;;;34.17;;
7169;SDS011;3626;42.656;23.312;2022-12-08T00:34:41;74.65;;;34.20;;
7169;SDS011;3626;42.656;23.312;2022-12-08T00:34:46;75.70;;;34.15;;
7169;SDS011;3626;42.656;23.312;2022-12-08T00:34:53;74.00;;;33.47;;
7169;SDS011;3626;42.656;23.312;2022-12-08T00:34:58;73.77;;;33.70;;
7169;SDS011;3626;42.656;23.312;2022-12-08T00:35:04;73.53;;;33.47;;
7169;SDS011;3626;42.656;23.312;2022-12-08T00:35:10;73.10;;;32.73;;
7169;SDS011;3626;42.656;23.312;2022-12-08T00:35:16;71.93;;;32.58;;
7169;SDS011;3626;42.656;23.312;2022-12-08T00:35:21;71.70;;;32.50;;
7169;SDS011;3626;42.656;23.312;2022-12-08T00:35:27;70.60;;;32.37;;
7169;SDS011;3626;42.656;23.312;2022-12-08T00:35:33;68.95;;;31.95;;
7169;SDS011;3626;42.656;23.312;2022-12-08T00:35:39;68.18;;;31.48;;
7169;SDS011;3626;42.656;23.312;2022-12-08T00:35:45;63.30;;;30.73;;
7169;SDS011;3626;42.656;23.312;2022-12-08T00:35:51;63.42;;;30.77;;
7169;SDS011;3626;42.656;23.312;2022-12-08T00:35:57;64.05;;;31.08;;
7169;SDS011;3626;42.656;23.312;2022-12-08T00:36:06;63.85;;;30.95;;
7169;SDS011;3626;42.656;23.312;2022-12-08T00:36:13;65.87;;;31.03;;
7169;SDS011;3626;42.656;23.312;2022-12-08T00:36:19;67.33;;;31.43;;
7169;SDS011;3626;42.656;23.312;2022-12-08T00:36:24;69.75;;;31.67;;
7169;SDS011;3626;42.656;23.312;2022-12-08T00:36:30;73.80;;;31.80;;
7169;SDS011;3626;42.656;23.312;2022-12-08T00:36:36;75.37;;;32.23;;
7169;SDS011;3626;42.656;23.312;2022-12-08T00:36:43;76.13;;;32.17;;
7169;SDS011;3626;42.656;23.312;2022-12-08T00:36:49;76.70;;;32.33;;
7169;SDS011;3626;42.656;23.312;2022-12-08T00:36:56;74.57;;;31.73;;
7169;SDS011;3626;42.656;23.312;2022-12-08T00:37:01;74.35;;;31.83;;
7169;SDS011;3626;42.656;23.312;2022-12-08T00:37:07;74.20;;;32.13;;
7169;SDS011;3626;42.656;23.312;2022-12-08T00:37:13;73.70;;;32.40;;
7169;SDS011;3626;42.656;23.312;2022-12-08T00:37:19;72.60;;;31.92;;
7169;SDS011;3626;42.656;23.312;2022-12-08T00:37:24;69.65;;;31.08;;
7169;SDS011;3626;42.656;23.312;2022-12-08T00:37:30;65.50;;;31.03;;
7169;SDS011;3626;42.656;23.312;2022-12-08T00:37:36;64.72;;;31.15;;
7169;SDS011;3626;42.656;23.312;2022-12-08T00:37:41;64.70;;;31.23;;
7169;SDS011;3626;42.656;23.312;2022-12-08T00:37:47;64.77;;;30.90;;
7169;SDS011;3626;42.656;23.312;2022-12-08T00:37:53;63.63;;;30.55;;
7169;SDS011;3626;42.656;23.312;2022-12-08T00:37:58;64.60;;;30.63;;
7169;SDS011;3626;42.656;23.312;2022-12-08T00:38:06;64.00;;;30.47;;
7169;SDS011;3626;42.656;23.312;2022-12-08T00:38:12;63.65;;;30.28;;
7169;SDS011;3626;42.656;23.312;2022-12-08T00:38:18;64.50;;;30.70;;
7169;SDS011;3626;42.656;23.312;2022-12-08T00:38:23;65.47;;;31.35;;
7169;SDS011;3626;42.656;23.312;2022-12-08T00:38:29;67.85;;;31.90;;
7169;SDS011;3626;42.656;23.312;2022-12-08T00:38:35;67.27;;;31.67;;
7169;SDS011;3626;42.656;23.312;2022-12-08T00:38:42;67.00;;;31.90;;
7169;SDS011;3626;42.656;23.312;2022-12-08T00:38:48;67.60;;;32.63;;
7169;SDS011;3626;42.656;23.312;2022-12-08T00:38:54;68.63;;;33.05;;
7169;SDS011;3626;42.656;23.312;2022-12-08T00:39:00;70.80;;;33.33;;
7169;SDS011;3626;42.656;23.312;2022-12-08T00:39:06;71.25;;;33.50;;
7169;SDS011;3626;42.656;23.312;2022-12-08T00:39:12;72.13;;;33.65;;
7169;SDS011;3626;42.656;23.312;2022-12-08T00:39:18;72.70;;;33.63;;
7169;SDS011;3626;42.656;23.312;2022-12-08T00:39:24;73.60;;;33.35;;
7169;SDS011;3626;42.656;23.312;2022-12-08T00:39:30;72.27;;;33.20;;
7169;SDS011;3626;42.656;23.312;2022-12-08T00:39:36;73.87;;;33.93;;
7169;SDS011;3626;42.656;23.312;2022-12-08T00:39:42;75.00;;;33.95;;
7169;SDS011;3626;42.656;23.312;2022-12-08T00:39:48;75.03;;;33.85;;
7169;SDS011;3626;42.656;23.312;2022-12-08T00:39:53;74.60;;;33.63;;
7169;SDS011;3626;42.656;23.312;2022-12-08T00:39:59;73.15;;;33.30;;
7169;SDS011;3626;42.656;23.312;2022-12-08T00:40:05;73.18;;;33.10;;
7169;SDS011;3626;42.656;23.312;2022-12-08T00:40:12;76.27;;;33.20;;